createdAt,value
2016-11-28T00:00:05.217Z,0
2016-11-28T00:01:05.226Z,0
2016-11-28T00:02:05.215Z,0
2016-11-28T00:03:05.222Z,0
2016-11-28T00:04:05.219Z,0
2016-11-28T00:05:05.227Z,0
2016-11-28T00:06:05.532Z,0
2016-11-28T00:07:05.201Z,0
2016-11-28T00:08:05.182Z,0
2016-11-28T00:09:05.161Z,0
2016-11-28T00:10:05.146Z,0
2016-11-28T00:11:05.129Z,0
2016-11-28T00:12:05.117Z,0
2016-11-28T00:13:05.107Z,0
2016-11-28T00:14:05.086Z,0
2016-11-28T00:15:05.057Z,0
2016-11-28T00:16:05.059Z,0
2016-11-28T00:17:05.060Z,0
2016-11-28T00:18:05.005Z,0
2016-11-28T00:19:04.988Z,0
2016-11-28T00:20:04.970Z,0
2016-11-28T00:21:04.959Z,0
2016-11-28T00:22:04.944Z,0
2016-11-28T00:23:04.938Z,0
2016-11-28T00:24:04.911Z,0
2016-11-28T00:25:04.888Z,0
2016-11-28T00:26:04.869Z,0
2016-11-28T00:27:04.892Z,0
2016-11-28T00:28:04.861Z,0
2016-11-28T00:29:05.132Z,0
2016-11-28T00:30:04.803Z,0
2016-11-28T00:31:04.789Z,0
2016-11-28T00:32:04.763Z,0
2016-11-28T00:33:04.754Z,0
2016-11-28T00:34:04.728Z,0
2016-11-28T00:35:04.717Z,0
2016-11-28T00:36:04.700Z,0
2016-11-28T00:37:04.698Z,0
2016-11-28T00:38:04.662Z,0
2016-11-28T00:39:04.644Z,0
2016-11-28T00:40:04.635Z,0
2016-11-28T00:41:04.608Z,0
2016-11-28T00:42:04.626Z,0
2016-11-28T00:43:04.582Z,0
2016-11-28T00:44:04.558Z,0
2016-11-28T00:45:04.547Z,0
2016-11-28T00:46:04.524Z,0
2016-11-28T00:47:04.512Z,0
2016-11-28T00:48:04.493Z,0
2016-11-28T00:49:04.477Z,0
2016-11-28T00:50:04.456Z,0
2016-11-28T00:51:04.439Z,0
2016-11-28T00:52:04.419Z,0
2016-11-28T00:53:04.401Z,0
2016-11-28T00:54:04.385Z,0
2016-11-28T00:55:04.367Z,0
2016-11-28T00:56:04.351Z,0
2016-11-28T00:57:04.342Z,0
2016-11-28T00:58:04.316Z,0
2016-11-28T00:59:04.299Z,0
2016-11-28T01:00:04.288Z,0
2016-11-28T01:01:04.266Z,0
2016-11-28T01:02:04.256Z,0
2016-11-28T01:03:04.246Z,0
2016-11-28T01:04:04.208Z,0
2016-11-28T01:05:04.197Z,0
2016-11-28T01:06:04.172Z,0
2016-11-28T01:07:04.162Z,0
2016-11-28T01:08:04.142Z,0
2016-11-28T01:09:04.124Z,0
2016-11-28T01:10:04.107Z,0
2016-11-28T01:11:04.088Z,0
2016-11-28T01:12:04.072Z,0
2016-11-28T01:13:04.054Z,0
2016-11-28T01:14:04.039Z,0
2016-11-28T01:15:04.015Z,0
2016-11-28T01:16:04.008Z,0
2016-11-28T01:17:03.981Z,0
2016-11-28T01:18:03.974Z,0
2016-11-28T01:19:03.949Z,0
2016-11-28T01:20:03.936Z,0
2016-11-28T01:21:03.911Z,0
2016-11-28T01:22:03.898Z,0
2016-11-28T01:23:03.898Z,0
2016-11-28T01:24:03.866Z,0
2016-11-28T01:25:03.854Z,0
2016-11-28T01:26:03.826Z,0
2016-11-28T01:27:03.812Z,0
2016-11-28T01:28:03.795Z,0
2016-11-28T01:29:03.776Z,0
2016-11-28T01:30:03.758Z,0
2016-11-28T01:31:03.754Z,0
2016-11-28T01:32:03.722Z,0
2016-11-28T01:33:03.750Z,0
2016-11-28T01:34:03.688Z,0
2016-11-28T01:35:03.669Z,0
2016-11-28T01:36:03.652Z,0
2016-11-28T01:37:03.634Z,0
2016-11-28T01:38:03.612Z,0
2016-11-28T01:39:03.913Z,0
2016-11-28T01:40:03.579Z,0
2016-11-28T01:41:03.568Z,0
2016-11-28T01:42:03.546Z,0
2016-11-28T01:43:03.528Z,0
2016-11-28T01:44:03.516Z,0
2016-11-28T01:45:03.497Z,0
2016-11-28T01:46:03.481Z,0
2016-11-28T01:47:03.468Z,0
2016-11-28T01:48:03.439Z,0
2016-11-28T01:49:03.426Z,0
2016-11-28T01:50:03.739Z,0
2016-11-28T01:51:03.710Z,0
2016-11-28T01:52:03.371Z,0
2016-11-28T01:53:03.357Z,0
2016-11-28T01:54:03.331Z,0
2016-11-28T01:55:03.367Z,0
2016-11-28T01:56:03.302Z,0
2016-11-28T01:57:03.281Z,0
2016-11-28T01:58:03.262Z,0
2016-11-28T01:59:03.248Z,0
2016-11-28T02:00:03.229Z,0
2016-11-28T02:01:03.251Z,0
2016-11-28T02:02:03.198Z,0
2016-11-28T02:03:03.178Z,0
2016-11-28T02:04:03.163Z,0
2016-11-28T02:05:03.153Z,0
2016-11-28T02:06:03.129Z,0
2016-11-28T02:07:03.109Z,0
2016-11-28T02:08:03.087Z,0
2016-11-28T02:09:03.078Z,0
2016-11-28T02:10:03.059Z,0
2016-11-28T02:11:03.041Z,0
2016-11-28T02:12:03.024Z,0
2016-11-28T02:13:03.002Z,0
2016-11-28T02:14:02.993Z,0
2016-11-28T02:15:02.968Z,0
2016-11-28T02:16:02.952Z,0
2016-11-28T02:17:02.940Z,0
2016-11-28T02:18:02.916Z,0
2016-11-28T02:19:02.907Z,0
2016-11-28T02:20:02.886Z,0
2016-11-28T02:21:02.868Z,0
2016-11-28T02:22:02.849Z,0
2016-11-28T02:23:02.829Z,0
2016-11-28T02:24:02.809Z,0
2016-11-28T02:25:02.795Z,0
2016-11-28T02:26:02.782Z,0
2016-11-28T02:27:02.762Z,0
2016-11-28T02:28:02.749Z,0
2016-11-28T02:29:02.723Z,0
2016-11-28T02:30:02.707Z,0
2016-11-28T02:31:02.690Z,0
2016-11-28T02:32:02.677Z,0
2016-11-28T02:33:02.656Z,0
2016-11-28T02:34:02.636Z,0
2016-11-28T02:35:02.618Z,0
2016-11-28T02:36:02.607Z,0
2016-11-28T02:37:02.586Z,0
2016-11-28T02:38:02.567Z,0
2016-11-28T02:39:02.554Z,0
2016-11-28T02:40:02.535Z,0
2016-11-28T02:41:02.519Z,0
2016-11-28T02:42:02.502Z,0
2016-11-28T02:43:02.798Z,0
2016-11-28T02:44:02.467Z,0
2016-11-28T02:45:02.447Z,0
2016-11-28T02:46:02.429Z,0
2016-11-28T02:47:02.448Z,0
2016-11-28T02:48:02.392Z,0
2016-11-28T02:49:02.375Z,0
2016-11-28T02:50:02.358Z,0
2016-11-28T02:51:02.344Z,0
2016-11-28T02:52:02.353Z,0
2016-11-28T02:53:02.622Z,0
2016-11-28T02:54:02.293Z,0
2016-11-28T02:55:02.275Z,0
2016-11-28T02:56:02.254Z,0
2016-11-28T02:57:02.236Z,0
2016-11-28T02:58:14.986Z,0
2016-11-28T02:59:02.200Z,0
2016-11-28T03:00:02.189Z,0
2016-11-28T03:01:02.175Z,0
2016-11-28T03:02:02.352Z,0
2016-11-28T03:03:02.138Z,0
2016-11-28T03:04:02.115Z,0
2016-11-28T03:05:02.102Z,0
2016-11-28T03:06:02.083Z,0
2016-11-28T03:07:02.066Z,0
2016-11-28T03:08:02.047Z,0
2016-11-28T03:09:02.032Z,0
2016-11-28T03:10:02.014Z,0
2016-11-28T03:11:01.997Z,0
2016-11-28T03:12:01.976Z,0
2016-11-28T03:13:01.965Z,0
2016-11-28T03:14:01.942Z,0
2016-11-28T03:15:02.024Z,0
2016-11-28T03:16:01.914Z,0
2016-11-28T03:17:01.895Z,0
2016-11-28T03:18:01.872Z,0
2016-11-28T03:19:01.858Z,0
2016-11-28T03:20:01.837Z,0
2016-11-28T03:21:01.820Z,0
2016-11-28T03:22:01.811Z,0
2016-11-28T03:23:01.802Z,0
2016-11-28T03:24:01.771Z,0
2016-11-28T03:25:01.770Z,0
2016-11-28T03:26:01.766Z,0
2016-11-28T03:27:01.734Z,0
2016-11-28T03:28:01.705Z,0
2016-11-28T03:29:01.693Z,0
2016-11-28T03:30:01.672Z,0
2016-11-28T03:31:01.652Z,0
2016-11-28T03:32:01.628Z,0
2016-11-28T03:33:01.612Z,0
2016-11-28T03:34:01.606Z,0
2016-11-28T03:35:01.633Z,0
2016-11-28T03:36:01.555Z,0
2016-11-28T03:37:01.539Z,0
2016-11-28T03:38:01.557Z,0
2016-11-28T03:39:01.505Z,0
2016-11-28T03:40:01.486Z,0
2016-11-28T03:41:01.473Z,0
2016-11-28T03:42:01.486Z,0
2016-11-28T03:43:01.432Z,0
2016-11-28T03:44:01.424Z,0
2016-11-28T03:45:01.397Z,0
2016-11-28T03:46:01.382Z,0
2016-11-28T03:47:01.366Z,0
2016-11-28T03:48:01.346Z,0
2016-11-28T03:49:01.337Z,0
2016-11-28T03:50:01.315Z,0
2016-11-28T03:51:01.299Z,0
2016-11-28T03:52:01.287Z,0
2016-11-28T03:53:01.261Z,0
2016-11-28T03:54:01.269Z,0
2016-11-28T03:55:01.229Z,0
2016-11-28T03:56:01.211Z,0
2016-11-28T03:57:01.191Z,0
2016-11-28T03:58:01.177Z,0
2016-11-28T03:59:01.161Z,0
2016-11-28T04:00:01.135Z,0
2016-11-28T04:01:01.123Z,0
2016-11-28T04:02:01.102Z,0
2016-11-28T04:03:01.122Z,0
2016-11-28T04:04:01.067Z,0
2016-11-28T04:05:01.052Z,0
2016-11-28T04:06:01.031Z,0
2016-11-28T04:07:01.050Z,0
2016-11-28T04:08:01.000Z,0
2016-11-28T04:09:01.034Z,0
2016-11-28T04:10:00.964Z,0
2016-11-28T04:11:00.979Z,0
2016-11-28T04:12:00.924Z,0
2016-11-28T04:13:00.913Z,0
2016-11-28T04:14:00.890Z,0
2016-11-28T04:15:00.875Z,0
2016-11-28T04:16:00.860Z,0
2016-11-28T04:17:00.838Z,0
2016-11-28T04:18:00.828Z,0
2016-11-28T04:19:00.807Z,0
2016-11-28T04:20:00.792Z,0
2016-11-28T04:21:00.798Z,0
2016-11-28T04:22:00.750Z,0
2016-11-28T04:23:00.735Z,0
2016-11-28T04:24:00.746Z,0
2016-11-28T04:25:00.694Z,0
2016-11-28T04:26:00.682Z,0
2016-11-28T04:27:00.655Z,0
2016-11-28T04:28:00.643Z,0
2016-11-28T04:29:00.631Z,0
2016-11-28T04:30:00.645Z,0
2016-11-28T04:31:00.590Z,0
2016-11-28T04:32:00.571Z,0
2016-11-28T04:33:00.553Z,0
2016-11-28T04:34:00.537Z,0
2016-11-28T04:35:00.830Z,0
2016-11-28T04:36:00.500Z,0
2016-11-28T04:37:00.516Z,0
2016-11-28T04:38:00.464Z,0
2016-11-28T04:39:00.449Z,0
2016-11-28T04:40:00.433Z,0
2016-11-28T04:41:00.415Z,0
2016-11-28T04:42:00.392Z,0
2016-11-28T04:43:00.378Z,0
2016-11-28T04:44:00.671Z,0
2016-11-28T04:45:00.345Z,0
2016-11-28T04:46:00.320Z,0
2016-11-28T04:47:00.311Z,0
2016-11-28T04:48:00.293Z,0
2016-11-28T04:49:00.277Z,0
2016-11-28T04:50:00.249Z,0
2016-11-28T04:51:00.232Z,0
2016-11-28T04:52:00.243Z,0
2016-11-28T04:53:00.199Z,0
2016-11-28T04:54:00.184Z,0
2016-11-28T04:55:00.161Z,0
2016-11-28T04:56:00.150Z,0
2016-11-28T04:57:00.130Z,0
2016-11-28T04:58:00.109Z,0
2016-11-28T04:59:00.130Z,0
2016-11-28T05:00:00.073Z,0
2016-11-28T05:01:00.060Z,0
2016-11-28T05:02:00.038Z,0
2016-11-28T05:03:00.051Z,0
2016-11-28T05:04:00.060Z,0
2016-11-28T05:04:59.990Z,0
2016-11-28T05:05:59.967Z,0
2016-11-28T05:06:59.954Z,0
2016-11-28T05:07:59.936Z,0
2016-11-28T05:08:59.916Z,0
2016-11-28T05:09:59.897Z,0
2016-11-28T05:10:59.878Z,0
2016-11-28T05:11:59.869Z,0
2016-11-28T05:12:59.877Z,0
2016-11-28T05:13:59.831Z,0
2016-11-28T05:14:59.809Z,0
2016-11-28T05:15:59.794Z,0
2016-11-28T05:16:59.773Z,0
2016-11-28T05:17:59.758Z,0
2016-11-28T05:18:59.736Z,0
2016-11-28T05:19:59.721Z,0
2016-11-28T05:20:59.707Z,0
2016-11-28T05:21:59.730Z,0
2016-11-28T05:22:59.674Z,0
2016-11-28T05:23:59.669Z,0
2016-11-28T05:24:59.643Z,0
2016-11-28T05:25:59.616Z,0
2016-11-28T05:26:59.594Z,0
2016-11-28T05:27:59.605Z,0
2016-11-28T05:28:59.562Z,0
2016-11-28T05:29:59.860Z,0
2016-11-28T05:30:59.562Z,0
2016-11-28T05:31:59.536Z,0
2016-11-28T05:32:59.506Z,0
2016-11-28T05:33:59.477Z,0
2016-11-28T05:34:59.455Z,0
2016-11-28T05:35:59.435Z,0
2016-11-28T05:36:59.421Z,0
2016-11-28T05:37:59.402Z,0
2016-11-28T05:38:59.383Z,0
2016-11-28T05:39:59.369Z,0
2016-11-28T05:40:59.346Z,0
2016-11-28T05:41:59.327Z,0
2016-11-28T05:42:59.316Z,0
2016-11-28T05:43:59.292Z,0
2016-11-28T05:44:59.275Z,0
2016-11-28T05:45:59.261Z,0
2016-11-28T05:46:59.241Z,0
2016-11-28T05:47:59.224Z,0
2016-11-28T05:48:59.206Z,0
2016-11-28T05:49:59.187Z,0
2016-11-28T05:50:59.174Z,0
2016-11-28T05:51:59.150Z,0
2016-11-28T05:52:59.131Z,0
2016-11-28T05:53:59.115Z,0
2016-11-28T05:54:59.099Z,0
2016-11-28T05:55:59.080Z,0
2016-11-28T05:56:59.063Z,0
2016-11-28T05:57:59.040Z,0
2016-11-28T05:58:59.030Z,0
2016-11-28T05:59:59.004Z,0
2016-11-28T06:00:58.992Z,0
2016-11-28T06:01:58.971Z,0
2016-11-28T06:02:58.954Z,0
2016-11-28T06:03:58.940Z,0
2016-11-28T06:04:58.919Z,0
2016-11-28T06:05:58.901Z,0
2016-11-28T06:06:58.884Z,0
2016-11-28T06:07:58.867Z,0
2016-11-28T06:08:58.841Z,0
2016-11-28T06:09:58.830Z,0
2016-11-28T06:10:58.809Z,0
2016-11-28T06:11:58.796Z,0
2016-11-28T06:12:58.801Z,0
2016-11-28T06:13:58.758Z,0
2016-11-28T06:14:58.739Z,0
2016-11-28T06:15:58.720Z,0
2016-11-28T06:16:58.703Z,0
2016-11-28T06:17:58.685Z,0
2016-11-28T06:18:58.980Z,0
2016-11-28T06:19:58.651Z,0
2016-11-28T06:20:58.627Z,0
2016-11-28T06:21:58.617Z,0
2016-11-28T06:22:58.595Z,0
2016-11-28T06:23:58.579Z,0
2016-11-28T06:24:58.551Z,0
2016-11-28T06:25:58.567Z,0
2016-11-28T06:26:58.525Z,0
2016-11-28T06:27:58.504Z,0
2016-11-28T06:28:58.487Z,0
2016-11-28T06:29:58.473Z,0
2016-11-28T06:30:58.447Z,0
2016-11-28T06:31:58.431Z,0
2016-11-28T06:32:58.414Z,0
2016-11-28T06:33:58.395Z,0
2016-11-28T06:34:58.378Z,0
2016-11-28T06:35:58.359Z,0
2016-11-28T06:36:58.342Z,0
2016-11-28T06:37:58.324Z,0
2016-11-28T06:38:58.306Z,0
2016-11-28T06:39:58.288Z,0
2016-11-28T06:40:58.276Z,0
2016-11-28T06:41:58.252Z,0
2016-11-28T06:42:58.258Z,5
2016-11-28T06:43:58.211Z,5
2016-11-28T06:44:58.201Z,5
2016-11-28T06:45:58.179Z,5
2016-11-28T06:46:58.160Z,5
2016-11-28T06:47:58.144Z,5
2016-11-28T06:48:58.127Z,5
2016-11-28T06:49:58.108Z,5
2016-11-28T06:50:58.118Z,5
2016-11-28T06:51:58.071Z,5
2016-11-28T06:52:58.057Z,5
2016-11-28T06:53:58.041Z,10
2016-11-28T06:54:58.018Z,10
2016-11-28T06:55:57.997Z,10
2016-11-28T06:56:57.979Z,10
2016-11-28T06:57:57.969Z,10
2016-11-28T06:58:57.943Z,10
2016-11-28T06:59:58.243Z,10
2016-11-28T07:00:57.906Z,15
2016-11-28T07:01:57.894Z,15
2016-11-28T07:02:57.875Z,15
2016-11-28T07:03:57.851Z,15
2016-11-28T07:04:57.836Z,15
2016-11-28T07:05:57.823Z,20
2016-11-28T07:06:57.802Z,20
2016-11-28T07:07:57.781Z,20
2016-11-28T07:08:57.767Z,20
2016-11-28T07:09:57.749Z,20
2016-11-28T07:10:57.727Z,20
2016-11-28T07:11:57.711Z,20
2016-11-28T07:12:57.695Z,25
2016-11-28T07:13:57.674Z,25
2016-11-28T07:14:57.652Z,25
2016-11-28T07:15:57.637Z,25
2016-11-28T07:16:57.619Z,25
2016-11-28T07:17:57.607Z,30
2016-11-28T07:18:57.613Z,30
2016-11-28T07:19:57.578Z,35
2016-11-28T07:20:57.553Z,35
2016-11-28T07:21:57.536Z,35
2016-11-28T07:22:57.512Z,35
2016-11-28T07:23:57.498Z,35
2016-11-28T07:24:57.477Z,35
2016-11-28T07:25:57.465Z,35
2016-11-28T07:26:57.438Z,35
2016-11-28T07:27:57.425Z,35
2016-11-28T07:28:57.411Z,35
2016-11-28T07:29:57.386Z,35
2016-11-28T07:30:57.369Z,35
2016-11-28T07:31:57.348Z,40
2016-11-28T07:32:57.327Z,35
2016-11-28T07:33:57.313Z,35
2016-11-28T07:34:57.340Z,40
2016-11-28T07:35:57.305Z,40
2016-11-28T07:36:57.260Z,40
2016-11-28T07:37:57.249Z,40
2016-11-28T07:38:57.218Z,45
2016-11-28T07:39:57.202Z,45
2016-11-28T07:40:57.186Z,45
2016-11-28T07:41:57.167Z,45
2016-11-28T07:42:57.159Z,45
2016-11-28T07:43:57.132Z,45
2016-11-28T07:44:57.117Z,45
2016-11-28T07:45:57.091Z,45
2016-11-28T07:46:57.076Z,45
2016-11-28T07:47:57.059Z,45
2016-11-28T07:48:57.045Z,45
2016-11-28T07:49:57.019Z,50
2016-11-28T07:50:57.002Z,55
2016-11-28T07:51:56.985Z,55
2016-11-28T07:52:56.963Z,60
2016-11-28T07:53:56.951Z,60
2016-11-28T07:54:56.932Z,60
2016-11-28T07:55:56.914Z,60
2016-11-28T07:56:56.894Z,65
2016-11-28T07:57:56.875Z,65
2016-11-28T07:58:56.858Z,65
2016-11-28T07:59:56.842Z,70
2016-11-28T08:00:56.819Z,70
2016-11-28T08:01:56.807Z,70
2016-11-28T08:02:56.782Z,70
2016-11-28T08:03:56.767Z,70
2016-11-28T08:04:56.769Z,70
2016-11-28T08:05:57.046Z,70
2016-11-28T08:06:56.715Z,70
2016-11-28T08:07:56.696Z,75
2016-11-28T08:08:56.675Z,75
2016-11-28T08:09:56.658Z,70
2016-11-28T08:10:56.678Z,70
2016-11-28T08:11:56.630Z,75
2016-11-28T08:12:56.607Z,75
2016-11-28T08:13:56.583Z,75
2016-11-28T08:14:56.571Z,80
2016-11-28T08:15:56.553Z,80
2016-11-28T08:16:56.533Z,80
2016-11-28T08:17:56.514Z,85
2016-11-28T08:18:56.504Z,85
2016-11-28T08:19:56.479Z,80
2016-11-28T08:20:56.463Z,80
2016-11-28T08:21:56.453Z,85
2016-11-28T08:22:56.430Z,80
2016-11-28T08:23:56.412Z,80
2016-11-28T08:24:56.392Z,85
2016-11-28T08:25:56.376Z,90
2016-11-28T08:26:56.351Z,90
2016-11-28T08:27:56.339Z,95
2016-11-28T08:28:56.320Z,95
2016-11-28T08:29:56.305Z,95
2016-11-28T08:30:56.302Z,95
2016-11-28T08:31:56.583Z,95
2016-11-28T08:32:56.247Z,95
2016-11-28T08:33:56.230Z,90
2016-11-28T08:34:56.209Z,95
2016-11-28T08:35:56.193Z,95
2016-11-28T08:36:56.186Z,90
2016-11-28T08:37:56.157Z,100
2016-11-28T08:38:56.136Z,100
2016-11-28T08:39:56.441Z,105
2016-11-28T08:40:56.104Z,90
2016-11-28T08:41:56.083Z,95
2016-11-28T08:42:56.392Z,100
2016-11-28T08:43:56.050Z,95
2016-11-28T08:44:56.345Z,100
2016-11-28T08:45:56.012Z,105
2016-11-28T08:46:55.997Z,110
2016-11-28T08:47:55.981Z,105
2016-11-28T08:48:55.959Z,110
2016-11-28T08:49:55.944Z,110
2016-11-28T08:50:55.922Z,105
2016-11-28T08:51:55.906Z,110
2016-11-28T08:52:55.886Z,110
2016-11-28T08:53:56.184Z,105
2016-11-28T08:54:55.852Z,100
2016-11-28T08:55:56.164Z,105
2016-11-28T08:56:55.813Z,105
2016-11-28T08:57:55.800Z,110
2016-11-28T08:58:55.779Z,120
2016-11-28T08:59:55.766Z,125
2016-11-28T09:00:55.741Z,105
2016-11-28T09:01:55.725Z,95
2016-11-28T09:02:55.711Z,115
2016-11-28T09:03:55.692Z,110
2016-11-28T09:04:55.673Z,110
2016-11-28T09:05:55.659Z,110
2016-11-28T09:06:55.635Z,115
2016-11-28T09:07:55.617Z,120
2016-11-28T09:08:55.606Z,100
2016-11-28T09:09:55.583Z,90
2016-11-28T09:10:55.562Z,85
2016-11-28T09:11:55.544Z,85
2016-11-28T09:12:55.527Z,120
2016-11-28T09:13:55.511Z,125
2016-11-28T09:14:55.493Z,120
2016-11-28T09:15:55.476Z,105
2016-11-28T09:16:55.455Z,100
2016-11-28T09:17:55.440Z,135
2016-11-28T09:18:55.426Z,120
2016-11-28T09:19:55.401Z,125
2016-11-28T09:20:55.385Z,110
2016-11-28T09:21:55.371Z,110
2016-11-28T09:22:55.349Z,105
2016-11-28T09:23:55.335Z,135
2016-11-28T09:24:55.317Z,145
2016-11-28T09:25:55.298Z,120
2016-11-28T09:26:55.279Z,90
2016-11-28T09:27:55.268Z,95
2016-11-28T09:28:55.237Z,95
2016-11-28T09:29:55.226Z,120
2016-11-28T09:30:55.205Z,120
2016-11-28T09:31:55.185Z,120
2016-11-28T09:32:55.173Z,75
2016-11-28T09:33:55.156Z,75
2016-11-28T09:34:55.132Z,120
2016-11-28T09:35:55.122Z,125
2016-11-28T09:36:55.102Z,100
2016-11-28T09:37:55.078Z,95
2016-11-28T09:38:55.063Z,115
2016-11-28T09:39:55.042Z,120
2016-11-28T09:40:55.055Z,110
2016-11-28T09:41:55.007Z,130
2016-11-28T09:42:54.993Z,120
2016-11-28T09:43:54.991Z,120
2016-11-28T09:44:54.955Z,145
2016-11-28T09:45:54.962Z,130
2016-11-28T09:46:54.916Z,95
2016-11-28T09:47:54.902Z,100
2016-11-28T09:48:54.885Z,105
2016-11-28T09:49:54.862Z,110
2016-11-28T09:50:54.851Z,100
2016-11-28T09:51:54.835Z,90
2016-11-28T09:52:54.811Z,100
2016-11-28T09:53:54.798Z,120
2016-11-28T09:54:54.774Z,95
2016-11-28T09:55:54.767Z,110
2016-11-28T09:56:54.741Z,105
2016-11-28T09:57:54.722Z,100
2016-11-28T09:58:54.710Z,95
2016-11-28T09:59:54.690Z,75
2016-11-28T10:00:54.671Z,75
2016-11-28T10:01:54.653Z,75
2016-11-28T10:02:54.633Z,85
2016-11-28T10:03:54.619Z,110
2016-11-28T10:04:54.602Z,80
2016-11-28T10:05:54.582Z,60
2016-11-28T10:06:54.560Z,60
2016-11-28T10:07:54.548Z,60
2016-11-28T10:08:54.537Z,65
2016-11-28T10:09:54.510Z,70
2016-11-28T10:10:54.487Z,85
2016-11-28T10:11:54.480Z,85
2016-11-28T10:12:54.460Z,65
2016-11-28T10:13:54.439Z,55
2016-11-28T10:14:54.422Z,50
2016-11-28T10:15:54.408Z,60
2016-11-28T10:16:54.384Z,65
2016-11-28T10:17:54.366Z,65
2016-11-28T10:18:54.347Z,65
2016-11-28T10:19:54.336Z,70
2016-11-28T10:20:54.317Z,95
2016-11-28T10:21:54.298Z,85
2016-11-28T10:22:54.280Z,75
2016-11-28T10:23:54.266Z,70
2016-11-28T10:24:54.261Z,75
2016-11-28T10:25:54.225Z,80
2016-11-28T10:26:54.212Z,80
2016-11-28T10:27:54.201Z,85
2016-11-28T10:28:54.178Z,95
2016-11-28T10:29:54.153Z,120
2016-11-28T10:30:54.131Z,140
2016-11-28T10:31:54.111Z,140
2016-11-28T10:32:54.100Z,125
2016-11-28T10:33:54.085Z,95
2016-11-28T10:34:54.071Z,100
2016-11-28T10:35:54.046Z,90
2016-11-28T10:36:54.030Z,100
2016-11-28T10:37:54.012Z,90
2016-11-28T10:38:53.992Z,95
2016-11-28T10:39:53.972Z,110
2016-11-28T10:40:53.957Z,120
2016-11-28T10:41:53.939Z,125
2016-11-28T10:42:53.921Z,130
2016-11-28T10:43:53.895Z,135
2016-11-28T10:44:56.426Z,105
2016-11-28T10:45:53.867Z,85
2016-11-28T10:46:53.844Z,95
2016-11-28T10:47:54.150Z,100
2016-11-28T10:48:54.127Z,95
2016-11-28T10:49:53.800Z,95
2016-11-28T10:50:53.782Z,110
2016-11-28T10:51:53.758Z,120
2016-11-28T10:52:53.742Z,100
2016-11-28T10:54:09.746Z,110
2016-11-28T10:54:53.731Z,120
2016-11-28T10:55:53.689Z,120
2016-11-28T10:56:53.670Z,105
2016-11-28T10:57:53.654Z,95
2016-11-28T10:58:53.632Z,75
2016-11-28T10:59:53.618Z,85
2016-11-28T11:00:53.603Z,110
2016-11-28T11:01:53.580Z,115
2016-11-28T11:03:09.066Z,100
2016-11-28T11:03:53.546Z,95
2016-11-28T11:04:53.678Z,95
2016-11-28T11:05:53.836Z,85
2016-11-28T11:06:53.498Z,70
2016-11-28T11:07:53.475Z,65
2016-11-28T11:08:53.460Z,65
2016-11-28T11:09:53.440Z,70
2016-11-28T11:10:53.422Z,65
2016-11-28T11:11:53.408Z,60
2016-11-28T11:12:53.386Z,70
2016-11-28T11:13:53.370Z,65
2016-11-28T11:14:53.358Z,70
2016-11-28T11:15:53.336Z,95
2016-11-28T11:16:53.325Z,140
2016-11-28T11:17:53.302Z,155
2016-11-28T11:18:53.282Z,160
2016-11-28T11:19:53.263Z,160
2016-11-28T11:20:53.246Z,175
2016-11-28T11:21:53.231Z,185
2016-11-28T11:22:53.210Z,180
2016-11-28T11:23:53.194Z,180
2016-11-28T11:24:53.175Z,180
2016-11-28T11:25:53.158Z,175
2016-11-28T11:26:53.144Z,185
2016-11-28T11:27:53.128Z,180
2016-11-28T11:28:53.106Z,170
2016-11-28T11:29:53.087Z,175
2016-11-28T11:30:53.075Z,175
2016-11-28T11:31:53.053Z,180
2016-11-28T11:32:53.031Z,180
2016-11-28T11:33:53.033Z,175
2016-11-28T11:34:53.003Z,180
2016-11-28T11:35:53.038Z,170
2016-11-28T11:36:52.969Z,170
2016-11-28T11:37:52.945Z,160
2016-11-28T11:38:52.930Z,165
2016-11-28T11:39:52.916Z,160
2016-11-28T11:40:52.899Z,160
2016-11-28T11:41:52.878Z,155
2016-11-28T11:42:52.868Z,155
2016-11-28T11:43:52.851Z,165
2016-11-28T11:44:52.831Z,160
2016-11-28T11:45:52.812Z,165
2016-11-28T11:46:52.794Z,170
2016-11-28T11:47:52.778Z,170
2016-11-28T11:48:52.769Z,160
2016-11-28T11:49:52.742Z,130
2016-11-28T11:50:52.726Z,125
2016-11-28T11:51:52.710Z,135
2016-11-28T11:52:52.692Z,140
2016-11-28T11:53:52.676Z,140
2016-11-28T11:54:52.654Z,125
2016-11-28T11:55:52.633Z,130
2016-11-28T11:56:52.624Z,135
2016-11-28T11:57:52.606Z,140
2016-11-28T11:58:52.587Z,135
2016-11-28T11:59:52.568Z,130
2016-11-28T12:00:52.557Z,130
2016-11-28T12:01:52.535Z,130
2016-11-28T12:02:52.516Z,125
2016-11-28T12:03:52.500Z,120
2016-11-28T12:04:52.482Z,105
2016-11-28T12:05:52.467Z,105
2016-11-28T12:06:52.447Z,110
2016-11-28T12:07:52.435Z,115
2016-11-28T12:08:52.414Z,130
2016-11-28T12:09:52.408Z,130
2016-11-28T12:10:52.693Z,120
2016-11-28T12:11:52.363Z,110
2016-11-28T12:12:52.343Z,100
2016-11-28T12:13:52.326Z,85
2016-11-28T12:14:52.313Z,85
2016-11-28T12:15:52.294Z,85
2016-11-28T12:16:52.274Z,80
2016-11-28T12:17:52.258Z,80
2016-11-28T12:18:52.239Z,95
2016-11-28T12:19:52.221Z,125
2016-11-28T12:20:52.205Z,130
2016-11-28T12:21:52.188Z,135
2016-11-28T12:22:52.171Z,145
2016-11-28T12:23:52.160Z,160
2016-11-28T12:24:52.169Z,175
2016-11-28T12:25:52.131Z,175
2016-11-28T12:26:52.109Z,180
2016-11-28T12:27:52.084Z,165
2016-11-28T12:28:52.076Z,145
2016-11-28T12:29:52.054Z,140
2016-11-28T12:30:52.037Z,130
2016-11-28T12:31:52.018Z,135
2016-11-28T12:32:51.997Z,130
2016-11-28T12:33:51.988Z,130
2016-11-28T12:34:52.037Z,130
2016-11-28T12:35:51.946Z,110
2016-11-28T12:36:51.932Z,110
2016-11-28T12:37:51.916Z,110
2016-11-28T12:38:51.904Z,110
2016-11-28T12:39:51.882Z,115
2016-11-28T12:40:51.860Z,115
2016-11-28T12:41:51.851Z,110
2016-11-28T12:42:51.834Z,110
2016-11-28T12:43:51.809Z,115
2016-11-28T12:44:51.794Z,105
2016-11-28T12:45:52.416Z,120
2016-11-28T12:46:51.761Z,130
2016-11-28T12:47:51.746Z,115
2016-11-28T12:48:51.721Z,115
2016-11-28T12:49:51.708Z,105
2016-11-28T12:50:52.002Z,100
2016-11-28T12:51:51.673Z,90
2016-11-28T12:52:51.658Z,90
2016-11-28T12:53:51.635Z,90
2016-11-28T12:54:51.618Z,90
2016-11-28T12:55:51.600Z,100
2016-11-28T12:56:51.588Z,110
2016-11-28T12:57:51.590Z,120
2016-11-28T12:58:51.549Z,90
2016-11-28T12:59:51.532Z,90
2016-11-28T13:00:51.512Z,105
2016-11-28T13:01:51.503Z,130
2016-11-28T13:02:51.483Z,130
2016-11-28T13:03:51.461Z,120
2016-11-28T13:04:51.772Z,105
2016-11-28T13:05:51.794Z,95
2016-11-28T13:06:51.411Z,85
2016-11-28T13:07:51.393Z,85
2016-11-28T13:08:51.406Z,110
2016-11-28T13:09:51.358Z,130
2016-11-28T13:10:51.341Z,115
2016-11-28T13:11:51.325Z,95
2016-11-28T13:12:51.303Z,85
2016-11-28T13:13:51.286Z,85
2016-11-28T13:14:51.273Z,90
2016-11-28T13:15:51.255Z,85
2016-11-28T13:16:51.233Z,85
2016-11-28T13:17:51.215Z,90
2016-11-28T13:18:51.202Z,100
2016-11-28T13:19:51.185Z,90
2016-11-28T13:20:51.165Z,100
2016-11-28T13:21:51.182Z,90
2016-11-28T13:22:51.131Z,95
2016-11-28T13:23:51.112Z,80
2016-11-28T13:24:51.094Z,70
2016-11-28T13:25:51.392Z,75
2016-11-28T13:26:51.062Z,85
2016-11-28T13:27:51.041Z,90
2016-11-28T13:28:51.024Z,85
2016-11-28T13:29:51.008Z,85
2016-11-28T13:30:50.992Z,90
2016-11-28T13:31:50.966Z,85
2016-11-28T13:32:50.960Z,85
2016-11-28T13:33:50.940Z,85
2016-11-28T13:34:50.922Z,85
2016-11-28T13:35:50.904Z,95
2016-11-28T13:36:50.894Z,90
2016-11-28T13:37:50.863Z,85
2016-11-28T13:38:50.847Z,75
2016-11-28T13:39:50.837Z,65
2016-11-28T13:40:50.823Z,70
2016-11-28T13:41:54.458Z,70
2016-11-28T13:42:50.774Z,70
2016-11-28T13:43:50.757Z,75
2016-11-28T13:44:50.747Z,85
2016-11-28T13:45:50.723Z,85
2016-11-28T13:46:50.707Z,75
2016-11-28T13:47:50.702Z,65
2016-11-28T13:48:50.668Z,70
2016-11-28T13:49:51.300Z,75
2016-11-28T13:50:50.639Z,80
2016-11-28T13:51:50.624Z,85
2016-11-28T13:52:50.603Z,95
2016-11-28T13:53:50.588Z,75
2016-11-28T13:54:50.563Z,70
2016-11-28T13:55:50.549Z,75
2016-11-28T13:56:50.528Z,80
2016-11-28T13:57:50.510Z,70
2016-11-28T13:58:50.497Z,70
2016-11-28T13:59:50.476Z,60
2016-11-28T14:00:50.456Z,55
2016-11-28T14:01:50.442Z,60
2016-11-28T14:02:50.422Z,60
2016-11-28T14:03:50.405Z,60
2016-11-28T14:04:50.395Z,65
2016-11-28T14:05:50.376Z,65
2016-11-28T14:06:50.349Z,70
2016-11-28T14:07:50.334Z,75
2016-11-28T14:08:50.317Z,70
2016-11-28T14:09:50.309Z,65
2016-11-28T14:10:50.285Z,70
2016-11-28T14:11:50.263Z,70
2016-11-28T14:12:50.246Z,65
2016-11-28T14:13:50.234Z,60
2016-11-28T14:14:50.210Z,55
2016-11-28T14:15:50.191Z,65
2016-11-28T14:16:50.182Z,50
2016-11-28T14:17:50.155Z,45
2016-11-28T14:18:50.455Z,45
2016-11-28T14:19:50.123Z,55
2016-11-28T14:20:50.105Z,55
2016-11-28T14:21:50.088Z,60
2016-11-28T14:22:50.071Z,50